createdAt,value
2023-11-09T00:00:04.721Z,100.00
2023-11-09T00:02:31.980Z,100.00
2023-11-09T00:04:59.161Z,100.00
2023-11-09T00:07:26.033Z,100.00
2023-11-09T00:09:53.011Z,100.00
2023-11-09T00:12:23.815Z,100.00
2023-11-09T00:14:50.776Z,100.00
2023-11-09T00:17:20.321Z,100.00
2023-11-09T00:19:47.222Z,100.00
2023-11-09T00:22:14.827Z,100.00
2023-11-09T00:24:41.632Z,100.00
2023-11-09T00:27:08.560Z,100.00
2023-11-09T00:29:36.601Z,100.00
2023-11-09T00:32:03.835Z,100.00
2023-11-09T00:34:30.831Z,100.00
2023-11-09T00:36:57.713Z,100.00
2023-11-09T00:39:25.931Z,100.00
2023-11-09T00:41:52.693Z,100.00
2023-11-09T00:44:19.689Z,100.00
2023-11-09T00:46:46.470Z,100.00
2023-11-09T00:49:13.424Z,100.00
2023-11-09T00:51:40.540Z,100.00
2023-11-09T00:54:07.354Z,100.00
2023-11-09T00:56:34.540Z,100.00
2023-11-09T00:59:02.970Z,100.00
2023-11-09T01:01:30.762Z,100.00
2023-11-09T01:03:57.838Z,100.00
2023-11-09T01:06:24.827Z,100.00
2023-11-09T01:08:52.218Z,100.00
2023-11-09T01:11:23.561Z,100.00
2023-11-09T01:13:50.690Z,100.00
2023-11-09T01:16:17.576Z,100.00
2023-11-09T01:18:44.608Z,100.00
2023-11-09T01:21:12.569Z,100.00
2023-11-09T01:23:41.042Z,100.00
2023-11-09T01:26:09.681Z,100.00
2023-11-09T01:28:36.967Z,100.00
2023-11-09T01:31:03.950Z,100.00
2023-11-09T01:33:30.970Z,100.00
2023-11-09T01:35:57.938Z,100.00
2023-11-09T01:38:25.995Z,100.00
2023-11-09T01:40:55.920Z,100.00
2023-11-09T01:43:23.141Z,100.00
2023-11-09T01:45:51.959Z,100.00
2023-11-09T01:48:22.172Z,100.00
2023-11-09T01:50:49.027Z,100.00
2023-11-09T01:53:16.200Z,100.00
2023-11-09T01:55:44.139Z,100.00
2023-11-09T01:58:10.882Z,100.00
2023-11-09T02:00:38.919Z,100.00
2023-11-09T02:03:06.667Z,100.00
2023-11-09T02:05:37.967Z,100.00
2023-11-09T02:08:05.289Z,100.00
2023-11-09T02:10:36.267Z,100.00
2023-11-09T02:13:03.388Z,100.00
2023-11-09T02:15:30.334Z,100.00
2023-11-09T02:17:57.262Z,100.00
2023-11-09T02:20:24.102Z,100.00
2023-11-09T02:22:52.716Z,100.00
2023-11-09T02:25:19.894Z,100.00
2023-11-09T02:27:46.820Z,100.00
2023-11-09T02:30:14.087Z,100.00
2023-11-09T02:32:41.036Z,100.00
2023-11-09T02:35:08.729Z,100.00
2023-11-09T02:37:35.632Z,100.00
2023-11-09T02:40:02.883Z,100.00
2023-11-09T02:42:29.946Z,100.00
2023-11-09T02:44:56.837Z,100.00
2023-11-09T02:47:23.894Z,100.00
2023-11-09T02:49:50.706Z,100.00
2023-11-09T02:52:17.403Z,100.00
2023-11-09T02:54:44.314Z,100.00
2023-11-09T02:57:12.167Z,100.00
2023-11-09T02:59:44.308Z,100.00
2023-11-09T03:02:11.381Z,100.00
2023-11-09T03:04:39.154Z,100.00
2023-11-09T03:07:09.015Z,100.00
2023-11-09T03:09:37.919Z,100.00
2023-11-09T03:12:08.203Z,100.00
2023-11-09T03:14:35.047Z,100.00
2023-11-09T03:17:03.921Z,100.00
2023-11-09T03:19:30.995Z,100.00
2023-11-09T03:21:57.696Z,100.00
2023-11-09T03:24:24.720Z,100.00
2023-11-09T03:26:51.521Z,100.00
2023-11-09T03:29:18.419Z,100.00
2023-11-09T03:31:46.481Z,100.00
2023-11-09T03:34:13.514Z,100.00
2023-11-09T03:36:40.691Z,100.00
2023-11-09T03:39:08.190Z,100.00
2023-11-09T03:41:35.076Z,100.00
2023-11-09T03:44:01.952Z,100.00
2023-11-09T03:46:28.903Z,100.00
2023-11-09T03:48:56.461Z,100.00
2023-11-09T03:51:24.907Z,100.00
2023-11-09T03:53:51.774Z,100.00
2023-11-09T03:56:21.868Z,100.00
2023-11-09T03:58:48.896Z,100.00
2023-11-09T04:01:15.993Z,100.00
2023-11-09T04:03:42.792Z,100.00
2023-11-09T04:06:14.655Z,100.00
2023-11-09T04:08:41.471Z,100.00
2023-11-09T04:11:08.218Z,100.00
2023-11-09T04:13:35.199Z,100.00
2023-11-09T04:16:02.977Z,100.00
2023-11-09T04:18:31.131Z,100.00
2023-11-09T04:20:58.598Z,100.00
2023-11-09T04:23:25.314Z,100.00
2023-11-09T04:25:52.559Z,100.00
2023-11-09T04:28:19.679Z,100.00
2023-11-09T04:30:46.683Z,100.00
2023-11-09T04:33:13.529Z,100.00
2023-11-09T04:35:40.338Z,100.00
2023-11-09T04:38:07.088Z,100.00
2023-11-09T04:40:34.040Z,100.00
2023-11-09T04:43:02.176Z,100.00
2023-11-09T04:45:29.702Z,100.00
2023-11-09T04:47:59.186Z,100.00
2023-11-09T04:50:29.326Z,100.00
2023-11-09T04:53:16.318Z,100.00
2023-11-09T04:55:54.269Z,100.00
2023-11-09T04:58:39.738Z,100.00
2023-11-09T05:01:25.110Z,100.00
2023-11-09T05:04:10.594Z,100.00
2023-11-09T05:06:49.722Z,100.00
2023-11-09T05:09:18.923Z,100.00
2023-11-09T05:11:47.110Z,100.00
2023-11-09T05:14:14.568Z,100.00
2023-11-09T05:16:41.521Z,100.00
2023-11-09T05:19:09.484Z,100.00
2023-11-09T05:21:38.043Z,100.00
2023-11-09T05:24:05.264Z,100.00
2023-11-09T05:26:33.483Z,100.00
2023-11-09T05:29:00.448Z,100.00
2023-11-09T05:31:27.392Z,100.00
2023-11-09T05:33:54.680Z,100.00
2023-11-09T05:36:24.742Z,100.00
2023-11-09T05:38:51.529Z,100.00
2023-11-09T05:41:18.535Z,100.00
2023-11-09T05:43:45.617Z,100.00
2023-11-09T05:46:12.598Z,100.00
2023-11-09T05:48:39.808Z,100.00
2023-11-09T05:51:06.762Z,100.00
2023-11-09T05:53:34.618Z,100.00
2023-11-09T05:56:01.567Z,100.00
2023-11-09T05:58:29.073Z,100.00
2023-11-09T06:00:55.889Z,100.00
2023-11-09T06:03:23.430Z,100.00
2023-11-09T06:05:51.358Z,100.00
2023-11-09T06:08:19.680Z,100.00
2023-11-09T06:10:48.350Z,100.00
2023-11-09T06:13:15.256Z,100.00
2023-11-09T06:15:44.862Z,100.00
2023-11-09T06:18:11.789Z,100.00
2023-11-09T06:20:38.730Z,100.00
2023-11-09T06:23:05.818Z,100.00
2023-11-09T06:25:32.599Z,100.00
2023-11-09T06:27:59.537Z,100.00
2023-11-09T06:30:28.001Z,100.00
2023-11-09T06:32:54.977Z,100.00
2023-11-09T06:35:22.053Z,100.00
2023-11-09T06:37:50.773Z,100.00
2023-11-09T06:40:17.806Z,100.00
2023-11-09T06:42:45.333Z,100.00
2023-11-09T06:45:12.261Z,100.00
2023-11-09T06:47:42.665Z,100.00
2023-11-09T06:50:13.287Z,100.00
2023-11-09T06:52:42.464Z,100.00
2023-11-09T06:55:10.751Z,100.00
2023-11-09T06:57:37.878Z,100.00
2023-11-09T07:00:07.168Z,100.00
2023-11-09T07:02:34.185Z,100.00
2023-11-09T07:05:01.254Z,100.00
2023-11-09T07:07:28.358Z,100.00
2023-11-09T07:09:55.379Z,100.00
2023-11-09T07:12:22.916Z,100.00
2023-11-09T07:14:49.796Z,100.00
2023-11-09T07:17:16.680Z,100.00
2023-11-09T07:19:48.554Z,100.00
2023-11-09T07:22:16.296Z,100.00
2023-11-09T07:24:52.434Z,100.00
2023-11-09T07:27:21.135Z,100.00
2023-11-09T07:29:47.983Z,100.00
2023-11-09T07:32:14.887Z,100.00
2023-11-09T07:34:42.447Z,100.00
2023-11-09T07:37:11.737Z,100.00
2023-11-09T07:39:38.868Z,100.00
2023-11-09T07:42:08.076Z,100.00
2023-11-09T07:44:35.064Z,100.00
2023-11-09T07:47:01.912Z,100.00
2023-11-09T07:49:31.122Z,100.00
2023-11-09T07:51:59.543Z,100.00
2023-11-09T07:54:29.077Z,100.00
2023-11-09T07:57:01.879Z,100.00
2023-11-09T07:59:28.939Z,100.00
2023-11-09T08:01:59.353Z,100.00
2023-11-09T08:04:28.531Z,100.00
2023-11-09T08:06:55.689Z,100.00
2023-11-09T08:09:22.655Z,100.00
2023-11-09T08:11:49.614Z,100.00
2023-11-09T08:14:17.205Z,100.00
2023-11-09T08:16:44.186Z,100.00
2023-11-09T08:19:11.372Z,100.00
2023-11-09T08:21:39.084Z,100.00
2023-11-09T08:24:06.475Z,100.00
2023-11-09T08:26:33.692Z,100.00
2023-11-09T08:29:00.761Z,100.00
2023-11-09T08:31:29.345Z,100.00
2023-11-09T08:33:56.548Z,100.00
2023-11-09T08:36:24.036Z,100.00
2023-11-09T08:38:51.025Z,100.00
2023-11-09T08:41:22.028Z,100.00
2023-11-09T08:43:51.783Z,100.00
2023-11-09T08:46:18.957Z,100.00
2023-11-09T08:48:45.932Z,100.00
2023-11-09T08:51:14.607Z,100.00
2023-11-09T08:53:41.968Z,100.00
2023-11-09T08:56:11.518Z,100.00
2023-11-09T08:58:40.642Z,100.00
2023-11-09T09:01:17.268Z,100.00
2023-11-09T09:03:45.663Z,100.00
2023-11-09T09:06:13.737Z,100.00
2023-11-09T09:08:41.003Z,100.00
2023-11-09T09:11:12.005Z,100.00
2023-11-09T09:13:39.207Z,100.00
2023-11-09T09:16:07.084Z,100.00
2023-11-09T09:18:34.355Z,96.14
2023-11-09T09:21:01.707Z,91.55
2023-11-09T09:23:29.001Z,90.49
2023-11-09T09:25:56.127Z,87.08
2023-11-09T09:28:23.479Z,86.73
2023-11-09T09:30:50.628Z,86.02
2023-11-09T09:33:18.329Z,83.94
2023-11-09T09:35:47.198Z,80.00
2023-11-09T09:38:16.555Z,78.96
2023-11-09T09:40:48.343Z,78.45
2023-11-09T09:43:20.193Z,77.15
2023-11-09T09:45:47.540Z,70.80
2023-11-09T09:48:14.597Z,65.95
2023-11-09T09:50:43.084Z,66.25
2023-11-09T09:53:10.075Z,65.50
2023-11-09T09:55:37.562Z,64.71
2023-11-09T09:58:06.172Z,63.93
2023-11-09T10:00:33.510Z,63.77
2023-11-09T10:03:02.420Z,63.91
2023-11-09T10:05:34.777Z,64.37
2023-11-09T10:08:03.569Z,66.35
2023-11-09T10:10:53.215Z,67.18
2023-11-09T10:13:24.000Z,66.54
2023-11-09T10:15:55.822Z,65.40
2023-11-09T10:18:26.851Z,62.29
2023-11-09T10:20:55.919Z,59.21
2023-11-09T10:23:22.926Z,60.03
2023-11-09T10:25:49.861Z,61.17
2023-11-09T10:28:16.954Z,61.89
2023-11-09T10:30:45.044Z,62.75
2023-11-09T10:33:13.449Z,63.27
2023-11-09T10:35:41.626Z,63.62
2023-11-09T10:38:12.809Z,64.95
2023-11-09T10:40:44.678Z,66.13
2023-11-09T10:43:33.793Z,67.39
2023-11-09T10:46:03.086Z,68.76
2023-11-09T10:48:32.799Z,70.19
2023-11-09T10:50:59.627Z,71.86
2023-11-09T10:53:29.218Z,72.71
2023-11-09T10:56:02.183Z,73.66
2023-11-09T10:58:33.926Z,75.37
2023-11-09T11:01:03.127Z,75.67
2023-11-09T11:03:56.140Z,76.26
2023-11-09T11:06:29.806Z,77.99
2023-11-09T11:09:08.592Z,79.30
2023-11-09T11:11:35.833Z,80.31
2023-11-09T11:14:06.890Z,81.06
2023-11-09T11:16:44.896Z,81.46
2023-11-09T11:19:23.998Z,81.35
2023-11-09T11:22:09.438Z,81.56
2023-11-09T11:25:03.535Z,82.54
2023-11-09T11:27:47.045Z,84.10
2023-11-09T11:30:24.474Z,85.90
2023-11-09T11:33:01.180Z,87.82
2023-11-09T11:35:39.731Z,90.06
2023-11-09T11:38:16.446Z,91.93
2023-11-09T11:40:44.164Z,93.69
2023-11-09T11:43:12.214Z,93.94
2023-11-09T11:45:39.325Z,93.68
2023-11-09T11:48:13.211Z,93.03
2023-11-09T11:50:41.430Z,91.51
2023-11-09T11:53:13.414Z,89.61
2023-11-09T11:56:14.041Z,88.28
2023-11-09T11:58:54.822Z,86.97
2023-11-09T12:01:33.454Z,86.30
2023-11-09T12:04:04.993Z,85.99
2023-11-09T12:06:38.035Z,86.31
2023-11-09T12:09:08.704Z,86.54
2023-11-09T12:11:46.650Z,86.92
2023-11-09T12:14:15.835Z,87.72
2023-11-09T12:16:43.053Z,89.23
2023-11-09T12:19:14.064Z,90.58
2023-11-09T12:21:41.759Z,91.51
2023-11-09T12:24:13.142Z,92.93
2023-11-09T12:26:40.573Z,94.82
2023-11-09T12:29:07.908Z,97.22
2023-11-09T12:31:35.721Z,98.19
2023-11-09T12:34:10.075Z,99.09
2023-11-09T12:36:42.140Z,99.88
2023-11-09T12:39:31.403Z,100.00
2023-11-09T12:41:59.790Z,100.00
2023-11-09T12:44:29.870Z,100.00
2023-11-09T12:47:21.680Z,100.00
2023-11-09T12:49:53.327Z,100.00
2023-11-09T12:52:26.707Z,100.00
2023-11-09T12:54:54.071Z,100.00
2023-11-09T12:57:23.529Z,100.00
2023-11-09T12:59:51.725Z,100.00
2023-11-09T13:02:20.424Z,100.00
2023-11-09T13:04:49.727Z,100.00
2023-11-09T13:07:16.883Z,100.00
2023-11-09T13:09:46.653Z,100.00
2023-11-09T13:12:29.712Z,100.00
2023-11-09T13:15:09.004Z,100.00
2023-11-09T13:17:56.899Z,100.00
2023-11-09T13:20:29.749Z,100.00
2023-11-09T13:23:08.184Z,100.00
2023-11-09T13:25:41.489Z,100.00
2023-11-09T13:28:10.430Z,100.00
2023-11-09T13:31:06.595Z,100.00
2023-11-09T13:33:37.652Z,100.00
2023-11-09T13:36:10.797Z,100.00
2023-11-09T13:38:44.453Z,100.00
2023-11-09T13:41:18.238Z,100.00
2023-11-09T13:43:57.681Z,100.00
2023-11-09T13:46:25.024Z,100.00
2023-11-09T13:48:52.624Z,100.00
2023-11-09T13:51:25.592Z,100.00
2023-11-09T13:53:55.844Z,100.00
2023-11-09T13:56:58.113Z,100.00
2023-11-09T13:59:30.487Z,100.00
2023-11-09T14:01:58.585Z,100.00
2023-11-09T14:04:30.200Z,100.00
2023-11-09T14:07:02.099Z,100.00
2023-11-09T14:09:43.433Z,100.00
2023-11-09T14:12:13.149Z,100.00
2023-11-09T14:14:47.537Z,100.00
2023-11-09T14:17:18.996Z,100.00
2023-11-09T14:19:56.058Z,100.00
2023-11-09T14:22:24.236Z,100.00
2023-11-09T14:24:54.214Z,100.00
2023-11-09T14:27:23.142Z,100.00
2023-11-09T14:29:51.337Z,100.00
2023-11-09T14:32:24.787Z,100.00
2023-11-09T14:34:54.489Z,100.00
2023-11-09T14:37:22.640Z,100.00
2023-11-09T14:40:13.287Z,100.00
2023-11-09T14:42:40.532Z,100.00
2023-11-09T14:45:09.987Z,100.00
2023-11-09T14:47:42.431Z,100.00
2023-11-09T14:50:19.478Z,100.00
2023-11-09T14:53:03.447Z,100.00
2023-11-09T14:55:32.547Z,100.00
2023-11-09T14:58:00.952Z,100.00
2023-11-09T15:00:29.802Z,100.00
2023-11-09T15:02:56.919Z,100.00
2023-11-09T15:05:28.689Z,100.00
2023-11-09T15:07:55.798Z,100.00
2023-11-09T15:10:26.050Z,100.00
2023-11-09T15:12:54.344Z,100.00
2023-11-09T15:15:24.317Z,100.00
2023-11-09T15:17:51.317Z,100.00
2023-11-09T15:20:23.815Z,100.00
2023-11-09T15:22:57.035Z,100.00
2023-11-09T15:25:31.369Z,100.00
2023-11-09T15:28:01.433Z,100.00
2023-11-09T15:30:30.271Z,100.00
2023-11-09T15:32:58.237Z,100.00
2023-11-09T15:35:29.175Z,100.00
2023-11-09T15:37:59.933Z,100.00
2023-11-09T15:41:09.759Z,100.00
2023-11-09T15:43:14.659Z,100.00
2023-11-09T15:45:44.786Z,100.00
2023-11-09T15:48:11.968Z,100.00
2023-11-09T15:50:39.032Z,100.00
2023-11-09T15:53:07.120Z,100.00
2023-11-09T15:55:36.476Z,100.00
2023-11-09T15:59:29.990Z,100.00
2023-11-09T16:01:59.843Z,100.00
2023-11-09T16:04:27.796Z,100.00
2023-11-09T16:06:55.615Z,100.00
2023-11-09T16:09:28.961Z,100.00
2023-11-09T16:11:56.757Z,100.00
2023-11-09T16:14:24.406Z,100.00
2023-11-09T16:16:52.201Z,100.00
2023-11-09T16:19:20.014Z,100.00
2023-11-09T16:21:48.640Z,100.00
2023-11-09T16:24:20.497Z,100.00
2023-11-09T16:26:56.471Z,100.00
2023-11-09T16:29:25.112Z,100.00
2023-11-09T16:32:08.306Z,100.00
2023-11-09T16:34:36.509Z,100.00
2023-11-09T16:37:06.902Z,100.00
2023-11-09T16:39:36.773Z,100.00
2023-11-09T16:42:04.760Z,100.00
2023-11-09T16:44:32.826Z,100.00
2023-11-09T16:47:00.882Z,100.00
2023-11-09T16:49:29.794Z,100.00
2023-11-09T16:51:57.532Z,100.00
2023-11-09T16:54:25.245Z,100.00
2023-11-09T16:56:53.233Z,100.00
2023-11-09T16:59:21.694Z,100.00
2023-11-09T17:01:49.512Z,100.00
2023-11-09T17:04:17.537Z,100.00
2023-11-09T17:06:45.228Z,100.00
2023-11-09T17:09:17.197Z,100.00
2023-11-09T17:11:44.882Z,100.00
2023-11-09T17:14:12.639Z,100.00
2023-11-09T17:16:40.514Z,100.00
2023-11-09T17:19:09.012Z,100.00
2023-11-09T17:21:36.841Z,100.00
2023-11-09T17:24:05.005Z,100.00
2023-11-09T17:26:32.813Z,100.00
2023-11-09T17:29:02.451Z,100.00
2023-11-09T17:31:30.352Z,100.00
2023-11-09T17:33:58.262Z,100.00
2023-11-09T17:36:26.320Z,100.00
2023-11-09T17:38:55.192Z,100.00
2023-11-09T17:41:23.353Z,100.00
2023-11-09T17:43:51.030Z,100.00
2023-11-09T17:46:18.823Z,100.00
2023-11-09T17:48:46.637Z,100.00
2023-11-09T17:51:14.414Z,100.00
2023-11-09T17:53:42.384Z,100.00
2023-11-09T17:56:10.056Z,100.00
2023-11-09T17:58:39.188Z,100.00
2023-11-09T18:01:08.119Z,100.00
2023-11-09T18:03:36.934Z,100.00
2023-11-09T18:06:05.032Z,100.00
2023-11-09T18:08:32.787Z,100.00
2023-11-09T18:11:01.362Z,100.00
2023-11-09T18:13:29.044Z,100.00
2023-11-09T18:15:56.861Z,100.00
2023-11-09T18:18:24.723Z,100.00
2023-11-09T18:20:54.378Z,100.00
2023-11-09T18:23:22.262Z,100.00
2023-11-09T18:25:50.235Z,100.00
2023-11-09T18:28:18.029Z,100.00
2023-11-09T18:30:45.693Z,100.00
2023-11-09T18:33:13.521Z,100.00
2023-11-09T18:35:41.720Z,100.00
2023-11-09T18:38:10.929Z,100.00
2023-11-09T18:40:38.878Z,100.00
2023-11-09T18:43:07.789Z,100.00
2023-11-09T18:45:35.668Z,100.00
2023-11-09T18:48:03.333Z,100.00
2023-11-09T18:53:02.517Z,100.00
2023-11-09T18:55:32.040Z,100.00
2023-11-09T18:58:05.180Z,100.00
2023-11-09T19:00:33.283Z,100.00
2023-11-09T19:05:33.507Z,100.00
2023-11-09T19:08:01.248Z,100.00
2023-11-09T19:10:29.593Z,100.00
2023-11-09T19:13:02.095Z,100.00
2023-11-09T19:15:31.073Z,100.00
2023-11-09T19:17:58.895Z,100.00
2023-11-09T19:22:58.335Z,100.00
2023-11-09T19:25:26.007Z,100.00
2023-11-09T19:27:53.872Z,100.00
2023-11-09T19:30:24.933Z,100.00
2023-11-09T19:32:52.843Z,100.00
2023-11-09T19:35:20.635Z,100.00
2023-11-09T19:37:48.289Z,100.00
2023-11-09T19:40:16.132Z,100.00
2023-11-09T19:42:43.904Z,100.00
2023-11-09T19:45:11.800Z,100.00
2023-11-09T19:47:42.514Z,100.00
2023-11-09T19:50:12.255Z,100.00
2023-11-09T19:52:40.005Z,100.00
2023-11-09T19:55:09.052Z,100.00
2023-11-09T19:57:36.939Z,100.00
2023-11-09T20:00:06.786Z,100.00
2023-11-09T20:02:40.472Z,100.00
2023-11-09T20:05:08.490Z,100.00
2023-11-09T20:07:36.162Z,100.00
2023-11-09T20:10:04.139Z,100.00
2023-11-09T20:12:31.811Z,100.00
2023-11-09T20:15:00.424Z,100.00
2023-11-09T20:17:28.767Z,100.00
2023-11-09T20:19:57.309Z,100.00
2023-11-09T20:22:25.260Z,100.00
2023-11-09T20:24:52.915Z,100.00
2023-11-09T20:27:22.559Z,100.00
2023-11-09T20:29:51.018Z,100.00
2023-11-09T20:32:18.913Z,100.00
2023-11-09T20:34:46.690Z,100.00
2023-11-09T20:37:14.620Z,100.00
2023-11-09T20:39:43.574Z,100.00
2023-11-09T20:42:11.728Z,100.00
2023-11-09T20:44:39.481Z,100.00
2023-11-09T20:47:07.262Z,100.00
2023-11-09T20:49:34.984Z,100.00
2023-11-09T20:52:02.759Z,100.00
2023-11-09T20:54:30.903Z,100.00
2023-11-09T20:56:59.901Z,100.00
2023-11-09T20:59:27.686Z,100.00
2023-11-09T21:01:57.691Z,100.00
2023-11-09T21:04:25.540Z,100.00
2023-11-09T21:06:53.680Z,100.00
2023-11-09T21:09:25.855Z,100.00
2023-11-09T21:11:56.027Z,100.00
2023-11-09T21:14:24.445Z,100.00
2023-11-09T21:16:53.388Z,100.00
2023-11-09T21:19:21.807Z,100.00
2023-11-09T21:21:49.725Z,100.00
2023-11-09T21:24:17.427Z,100.00
2023-11-09T21:26:45.822Z,100.00
2023-11-09T21:29:16.219Z,100.00
2023-11-09T21:31:45.352Z,100.00
2023-11-09T21:34:13.227Z,100.00
2023-11-09T21:36:41.281Z,100.00
2023-11-09T21:39:10.106Z,100.00
2023-11-09T21:41:44.686Z,100.00
2023-11-09T21:44:15.250Z,100.00
2023-11-09T21:46:44.827Z,100.00
2023-11-09T21:49:14.109Z,100.00
2023-11-09T21:51:45.814Z,100.00
2023-11-09T21:54:13.439Z,100.00
2023-11-09T21:56:41.751Z,100.00
2023-11-09T21:59:11.748Z,100.00
2023-11-09T22:01:39.772Z,100.00
2023-11-09T22:04:07.879Z,100.00
2023-11-09T22:06:35.694Z,100.00
2023-11-09T22:09:08.288Z,100.00
2023-11-09T22:11:37.100Z,100.00
2023-11-09T22:14:05.613Z,100.00
2023-11-09T22:16:33.199Z,100.00
2023-11-09T22:19:00.829Z,100.00
2023-11-09T22:21:29.485Z,100.00
2023-11-09T22:23:57.087Z,100.00
2023-11-09T22:26:24.819Z,100.00
2023-11-09T22:28:52.401Z,100.00
2023-11-09T22:31:20.132Z,100.00
2023-11-09T22:33:48.223Z,100.00
2023-11-09T22:36:15.989Z,100.00
2023-11-09T22:38:43.615Z,100.00
2023-11-09T22:41:11.356Z,100.00
2023-11-09T22:43:38.989Z,100.00
2023-11-09T22:46:06.686Z,100.00
2023-11-09T22:48:34.500Z,100.00
2023-11-09T22:51:02.200Z,100.00
2023-11-09T22:53:29.817Z,100.00
2023-11-09T22:56:00.048Z,100.00
2023-11-09T22:58:27.854Z,100.00
2023-11-09T23:00:57.758Z,100.00
2023-11-09T23:03:25.542Z,100.00
2023-11-09T23:05:56.383Z,100.00
2023-11-09T23:08:24.693Z,100.00
2023-11-09T23:10:52.634Z,100.00
2023-11-09T23:13:20.440Z,100.00
2023-11-09T23:15:48.113Z,100.00
2023-11-09T23:18:17.038Z,100.00
2023-11-09T23:20:45.602Z,100.00
2023-11-09T23:23:13.534Z,100.00
2023-11-09T23:25:41.269Z,100.00
2023-11-09T23:28:09.075Z,100.00
2023-11-09T23:30:36.756Z,100.00
2023-11-09T23:33:04.728Z,100.00
2023-11-09T23:35:32.425Z,100.00
2023-11-09T23:38:00.046Z,100.00
2023-11-09T23:40:27.779Z,100.00
2023-11-09T23:42:55.464Z,100.00
2023-11-09T23:45:23.255Z,100.00
2023-11-09T23:47:50.998Z,100.00
2023-11-09T23:50:18.669Z,100.00
2023-11-09T23:52:46.333Z,100.00
2023-11-09T23:55:14.022Z,100.00
2023-11-09T23:57:41.723Z,100.00
